Time;durP1;ratioP1;P1;durP2;ratioP2;P2;SDS_P1;SDS_P2;PMS_P1;PMS_P2;Temp;Humidity;BMP_temperature;BMP_pressure;BME280_temperature;BME280_humidity;BME280_pressure;Samples;Min_cycle;Max_cycle;Signal;HPM_P1;HPM_P2
2022/03/23 00:01:23;;;;;;;32.17;18.60;;;7.00;99.90;;;;;;5015858;28;20497;-84
2022/03/23 00:03:49;;;;;;;35.70;21.30;;;7.00;99.90;;;;;;5009995;28;20062;-84
2022/03/23 00:06:16;;;;;;;34.03;21.45;;;6.90;99.90;;;;;;5030882;28;20387;-84
2022/03/23 00:08:42;;;;;;;31.35;19.20;;;6.90;99.90;;;;;;5009834;27;20053;-84
2022/03/23 00:11:08;;;;;;;34.92;22.25;;;6.80;99.90;;;;;;5010360;28;20045;-84
2022/03/23 00:13:34;;;;;;;38.90;24.70;;;6.80;99.90;;;;;;5014006;28;20054;-84
2022/03/23 00:15:59;;;;;;;34.90;23.80;;;6.80;99.90;;;;;;5011918;28;20045;-83
2022/03/23 00:18:25;;;;;;;34.28;21.65;;;6.80;99.90;;;;;;5010059;28;20042;-84
2022/03/23 00:20:51;;;;;;;33.85;23.05;;;6.80;99.90;;;;;;5033039;28;20397;-84
2022/03/23 00:23:16;;;;;;;40.45;33.88;;;6.70;99.90;;;;;;5028901;28;20030;-84
2022/03/23 00:25:42;;;;;;;35.45;23.02;;;6.70;99.90;;;;;;5057077;28;20048;-84
2022/03/23 00:28:07;;;;;;;37.55;24.90;;;6.70;99.90;;;;;;5010263;28;20046;-84
2022/03/23 00:30:34;;;;;;;41.08;21.77;;;6.60;99.90;;;;;;5012987;28;20138;-84
2022/03/23 00:33:05;;;;;;;36.15;24.40;;;6.60;99.90;;;;;;5005337;28;20099;-84
2022/03/23 00:35:31;;;;;;;30.65;18.38;;;6.50;99.90;;;;;;5037814;28;20136;-84
2022/03/23 00:38:00;;;;;;;34.28;20.40;;;6.40;99.90;;;;;;5034246;28;20049;-84
2022/03/23 00:40:28;;;;;;;35.63;23.63;;;6.30;99.90;;;;;;5009241;28;20042;-84
2022/03/23 00:42:54;;;;;;;37.70;23.40;;;6.30;99.90;;;;;;5008567;28;20495;-84
2022/03/23 00:45:20;;;;;;;33.97;19.55;;;6.30;99.90;;;;;;5025672;28;20122;-84
2022/03/23 00:47:48;;;;;;;43.75;21.88;;;6.20;99.90;;;;;;5015035;28;20042;-84
2022/03/23 00:50:14;;;;;;;33.10;19.85;;;6.20;99.90;;;;;;5007594;28;20353;-83
2022/03/23 00:52:40;;;;;;;40.97;26.00;;;6.10;99.90;;;;;;5063660;28;20488;-83
2022/03/23 00:55:09;;;;;;;37.50;23.45;;;6.10;99.90;;;;;;5067865;28;20125;-84
2022/03/23 00:57:38;;;;;;;36.35;22.02;;;6.10;99.90;;;;;;5009885;28;20076;-84
2022/03/23 01:00:09;;;;;;;41.20;24.27;;;6.20;99.90;;;;;;5057149;28;20046;-84
2022/03/23 01:02:35;;;;;;;40.30;26.35;;;6.20;99.90;;;;;;5026015;28;20063;-84
2022/03/23 01:05:02;;;;;;;43.63;36.22;;;6.30;99.90;;;;;;5072315;28;20047;-84
2022/03/23 01:07:27;;;;;;;42.90;25.33;;;6.40;99.90;;;;;;5048418;28;20408;-84
2022/03/23 01:09:53;;;;;;;46.50;24.85;;;6.40;99.90;;;;;;5036746;28;20032;-84
2022/03/23 01:12:18;;;;;;;47.45;27.17;;;6.40;99.90;;;;;;5019064;28;20049;-84
2022/03/23 01:14:44;;;;;;;44.97;22.88;;;6.40;99.90;;;;;;5044613;28;20046;-84
2022/03/23 01:17:10;;;;;;;41.28;25.20;;;6.40;99.90;;;;;;5036417;28;20046;-84
2022/03/23 01:19:36;;;;;;;43.47;25.13;;;6.40;99.90;;;;;;5053103;28;20067;-84
2022/03/23 01:22:01;;;;;;;39.92;25.02;;;6.50;99.90;;;;;;5059708;28;20171;-84
2022/03/23 01:24:27;;;;;;;45.08;26.35;;;6.50;99.90;;;;;;5012007;28;20519;-84
2022/03/23 01:26:53;;;;;;;44.65;25.58;;;6.50;99.90;;;;;;5046605;28;20125;-84
2022/03/23 01:29:19;;;;;;;46.22;26.25;;;6.50;99.90;;;;;;5034008;28;20084;-84
2022/03/23 01:31:46;;;;;;;47.83;29.08;;;6.40;99.90;;;;;;5010061;28;20077;-84
2022/03/23 01:34:11;;;;;;;43.15;24.95;;;6.40;99.90;;;;;;5007186;28;20042;-83
2022/03/23 01:36:37;;;;;;;47.05;28.13;;;6.40;99.90;;;;;;5007584;28;20510;-84
2022/03/23 01:39:03;;;;;;;46.25;28.63;;;6.40;99.90;;;;;;5025776;28;20054;-84
2022/03/23 01:41:29;;;;;;;46.33;29.95;;;6.30;99.90;;;;;;5010838;28;20046;-83
2022/03/23 01:43:55;;;;;;;46.95;30.92;;;6.30;99.90;;;;;;5072705;28;20053;-83
2022/03/23 01:46:20;;;;;;;49.42;39.10;;;6.30;99.90;;;;;;5085526;28;20381;-84
2022/03/23 01:48:47;;;;;;;42.13;27.40;;;6.40;99.90;;;;;;5060867;28;20383;-84
2022/03/23 01:51:13;;;;;;;45.38;27.38;;;6.40;99.90;;;;;;5063493;28;20049;-83
2022/03/23 01:53:40;;;;;;;48.85;28.45;;;6.30;99.90;;;;;;5052282;28;20153;-84
2022/03/23 01:56:07;;;;;;;43.63;27.30;;;6.30;99.90;;;;;;5046788;28;20058;-84
2022/03/23 01:58:32;;;;;;;46.70;28.90;;;6.20;99.90;;;;;;5042501;28;20039;-84
2022/03/23 02:00:59;;;;;;;47.53;27.92;;;6.20;99.90;;;;;;5051122;28;20051;-84
2022/03/23 02:03:25;;;;;;;46.10;27.35;;;6.10;99.90;;;;;;5008913;28;20049;-83
2022/03/23 02:05:51;;;;;;;44.95;28.90;;;6.10;99.90;;;;;;5009797;28;20140;-84
2022/03/23 02:08:17;;;;;;;41.63;26.42;;;6.10;99.90;;;;;;5048111;28;20278;-84
2022/03/23 02:10:42;;;;;;;39.00;22.10;;;6.00;99.90;;;;;;5036149;28;20506;-84
2022/03/23 02:13:09;;;;;;;49.28;29.92;;;6.00;99.90;;;;;;4994586;28;20049;-83
2022/03/23 02:15:35;;;;;;;46.15;25.15;;;6.00;99.90;;;;;;5029603;28;20125;-84
2022/03/23 02:18:02;;;;;;;38.80;22.60;;;5.90;99.90;;;;;;5011423;28;20093;-84
2022/03/23 02:20:28;;;;;;;41.22;25.35;;;5.90;99.90;;;;;;5013342;28;20074;-84
2022/03/23 02:22:54;;;;;;;47.03;29.00;;;5.90;99.90;;;;;;5012763;28;20119;-84
2022/03/23 02:25:23;;;;;;;46.30;27.88;;;5.90;99.90;;;;;;5010820;28;20034;-84
2022/03/23 02:27:50;;;;;;;44.15;26.55;;;5.80;99.90;;;;;;5010461;28;20053;-84
2022/03/23 02:30:15;;;;;;;45.85;26.27;;;5.80;99.90;;;;;;5022051;28;20120;-83
2022/03/23 02:32:41;;;;;;;41.95;27.80;;;5.80;99.90;;;;;;5010738;28;20054;-83
2022/03/23 02:35:08;;;;;;;45.55;26.75;;;5.80;99.90;;;;;;5010807;28;20134;-83
2022/03/23 02:37:37;;;;;;;46.38;26.95;;;5.80;99.90;;;;;;5058665;28;20123;-84
2022/03/23 02:40:03;;;;;;;45.17;25.92;;;5.70;99.90;;;;;;5009861;28;20393;-84
2022/03/23 02:42:29;;;;;;;41.28;24.80;;;5.70;99.90;;;;;;5041702;28;20042;-83
2022/03/23 02:44:55;;;;;;;42.92;25.73;;;5.60;99.90;;;;;;5029668;28;20415;-83
2022/03/23 02:47:20;;;;;;;45.45;27.98;;;5.50;99.90;;;;;;5011388;28;20042;-84
2022/03/23 02:49:46;;;;;;;42.25;23.70;;;5.40;99.90;;;;;;5010532;28;20064;-84
2022/03/23 02:52:11;;;;;;;45.67;24.60;;;5.40;99.90;;;;;;5010808;28;20490;-84
2022/03/23 03:03:38;;;;;;;43.22;23.20;;;5.10;99.90;;;;;;5030841;28;20057;-83
2022/03/23 03:06:04;;;;;;;40.60;24.40;;;5.00;99.90;;;;;;5011003;28;20438;-83
2022/03/23 03:08:47;;;;;;;43.25;21.95;;;5.00;99.90;;;;;;5011764;28;20051;-83
2022/03/23 03:11:13;;;;;;;38.15;23.77;;;4.90;99.90;;;;;;5093831;28;20048;-84
2022/03/23 03:13:41;;;;;;;36.15;19.38;;;4.90;99.90;;;;;;5045492;28;20124;-84
2022/03/23 03:16:06;;;;;;;35.60;21.30;;;4.90;99.90;;;;;;5010338;28;20038;-83
2022/03/23 03:18:34;;;;;;;40.40;24.83;;;4.90;99.90;;;;;;5043611;28;21050;-84
2022/03/23 03:21:03;;;;;;;40.83;21.35;;;4.80;99.90;;;;;;5017941;28;20054;-84
2022/03/23 03:23:30;;;;;;;41.65;24.38;;;4.80;99.90;;;;;;5010034;28;20038;-83
2022/03/23 03:25:56;;;;;;;35.60;21.27;;;4.90;99.90;;;;;;5018337;28;20054;-83
2022/03/23 03:28:22;;;;;;;37.92;22.15;;;4.80;99.90;;;;;;5064194;28;20379;-83
2022/03/23 03:30:47;;;;;;;37.38;21.63;;;4.80;99.90;;;;;;5025028;28;20053;-83
2022/03/23 03:33:13;;;;;;;42.28;24.98;;;4.80;99.90;;;;;;5012353;28;20038;-84
2022/03/23 03:35:39;;;;;;;36.10;20.70;;;4.80;99.90;;;;;;5030344;28;20720;-83
2022/03/23 03:38:04;;;;;;;35.40;20.23;;;4.80;99.90;;;;;;5034136;28;20092;-84
2022/03/23 03:40:30;;;;;;;38.13;21.15;;;4.80;99.90;;;;;;5011010;28;20506;-84
2022/03/23 03:42:55;;;;;;;40.25;21.75;;;4.70;99.90;;;;;;5028975;28;20114;-84
2022/03/23 03:45:21;;;;;;;41.30;23.92;;;4.70;99.90;;;;;;5048136;28;20439;-84
2022/03/23 03:47:47;;;;;;;44.55;23.33;;;4.70;99.90;;;;;;5055877;28;20622;-84
2022/03/23 03:50:12;;;;;;;45.58;25.17;;;4.70;99.90;;;;;;5092747;28;20403;-84
2022/03/23 03:52:38;;;;;;;41.00;22.75;;;4.80;99.90;;;;;;5069098;28;20046;-84
2022/03/23 03:55:05;;;;;;;41.67;22.00;;;4.80;99.90;;;;;;5013250;28;20042;-84
2022/03/23 03:57:30;;;;;;;38.28;20.25;;;4.70;99.90;;;;;;5059318;28;20114;-84
2022/03/23 03:59:56;;;;;;;41.72;23.20;;;4.70;99.90;;;;;;5007621;28;20033;-83
2022/03/23 04:02:21;;;;;;;43.10;24.00;;;4.60;99.90;;;;;;5009159;28;20488;-84
2022/03/23 04:04:47;;;;;;;45.75;23.27;;;4.60;99.90;;;;;;5009344;28;20390;-84
2022/03/23 04:07:12;;;;;;;39.53;22.73;;;4.60;99.90;;;;;;5008262;28;20123;-84
2022/03/23 04:09:38;;;;;;;40.83;23.67;;;4.50;99.90;;;;;;5058928;28;20038;-83
2022/03/23 04:12:04;;;;;;;41.65;23.73;;;4.50;99.90;;;;;;5012909;28;20087;-83
2022/03/23 04:14:30;;;;;;;42.30;22.55;;;4.50;99.90;;;;;;4992193;28;20130;-84
2022/03/23 04:16:55;;;;;;;41.00;21.75;;;4.40;99.90;;;;;;5034177;28;20537;-83
2022/03/23 04:19:21;;;;;;;40.60;21.85;;;4.40;99.90;;;;;;5008600;28;20056;-83
2022/03/23 04:21:47;;;;;;;44.55;22.90;;;4.40;99.90;;;;;;5073278;28;20505;-84
2022/03/23 04:24:12;;;;;;;44.35;23.67;;;4.40;99.90;;;;;;5015425;28;20045;-84
2022/03/23 04:26:38;;;;;;;40.47;22.83;;;4.40;99.90;;;;;;5045191;28;20480;-83
2022/03/23 04:29:03;;;;;;;41.25;21.98;;;4.30;99.90;;;;;;5040087;28;21414;-84
2022/03/23 04:31:29;;;;;;;38.28;21.23;;;4.30;99.90;;;;;;5033423;28;20043;-84
2022/03/23 04:33:54;;;;;;;39.13;21.38;;;4.30;99.90;;;;;;4995254;28;20048;-84
2022/03/23 04:36:20;;;;;;;38.47;21.25;;;4.30;99.90;;;;;;5041902;28;20115;-84
2022/03/23 04:38:46;;;;;;;42.50;24.60;;;4.30;99.90;;;;;;5018758;28;20054;-84
2022/03/23 04:41:11;;;;;;;40.70;23.67;;;4.30;99.90;;;;;;5009735;28;20185;-84
2022/03/23 04:43:38;;;;;;;39.22;23.05;;;4.30;99.90;;;;;;5068593;28;20039;-84
2022/03/23 04:46:05;;;;;;;43.78;23.70;;;4.30;99.90;;;;;;5031570;28;20068;-84
2022/03/23 04:48:31;;;;;;;44.28;24.33;;;4.30;99.90;;;;;;5015400;28;20045;-84
2022/03/23 04:50:56;;;;;;;44.75;23.75;;;4.30;99.90;;;;;;5008866;28;20091;-84
2022/03/23 04:53:22;;;;;;;48.42;25.80;;;4.30;99.90;;;;;;5054713;28;20087;-84
2022/03/23 04:55:47;;;;;;;43.90;24.30;;;4.30;99.90;;;;;;5033072;28;20057;-84
2022/03/23 04:58:13;;;;;;;43.78;24.45;;;4.20;99.90;;;;;;5061236;28;20043;-84
2022/03/23 05:00:40;;;;;;;40.97;22.38;;;4.20;99.90;;;;;;5010243;28;20543;-84
2022/03/23 05:03:05;;;;;;;43.03;22.52;;;4.20;99.90;;;;;;5073379;28;20105;-84
2022/03/23 05:05:31;;;;;;;43.33;23.50;;;4.10;99.90;;;;;;5056876;28;20051;-84
2022/03/23 05:07:57;;;;;;;43.80;22.77;;;4.10;99.90;;;;;;5026118;28;20081;-84
2022/03/23 05:10:23;;;;;;;50.45;26.20;;;4.20;99.90;;;;;;5008069;28;20169;-84
2022/03/23 05:12:49;;;;;;;44.40;23.25;;;4.10;99.90;;;;;;5048026;28;20402;-84
2022/03/23 05:15:16;;;;;;;52.80;24.63;;;4.10;99.90;;;;;;5078687;28;20118;-84
2022/03/23 05:17:42;;;;;;;48.38;26.02;;;4.10;99.90;;;;;;5014447;28;20038;-84
2022/03/23 05:20:09;;;;;;;42.78;23.58;;;4.10;99.90;;;;;;5008565;28;20042;-84
2022/03/23 05:22:37;;;;;;;48.90;26.02;;;4.10;99.90;;;;;;5041430;28;20067;-84
2022/03/23 05:25:04;;;;;;;50.15;26.40;;;4.10;99.90;;;;;;5010709;28;20498;-84
2022/03/23 05:27:36;;;;;;;46.60;25.63;;;4.10;99.90;;;;;;5030435;28;20134;-83
2022/03/23 05:30:04;;;;;;;49.58;26.33;;;4.10;99.90;;;;;;5009907;28;20067;-84
2022/03/23 05:32:30;;;;;;;45.35;24.85;;;4.10;99.90;;;;;;5009173;28;20048;-84
2022/03/23 05:34:55;;;;;;;47.22;24.95;;;4.20;99.90;;;;;;5036619;28;20130;-84
2022/03/23 05:37:21;;;;;;;47.72;24.80;;;4.10;99.90;;;;;;5016447;28;20496;-84
2022/03/23 05:39:47;;;;;;;50.22;25.80;;;4.10;99.90;;;;;;5040454;28;20047;-84
2022/03/23 05:42:13;;;;;;;45.25;24.17;;;4.10;99.90;;;;;;5010837;28;20133;-84
2022/03/23 05:44:40;;;;;;;48.00;26.48;;;4.10;99.90;;;;;;5075042;28;20052;-84
2022/03/23 05:47:06;;;;;;;47.17;25.90;;;4.10;99.90;;;;;;5003363;28;20080;-84
2022/03/23 05:49:32;;;;;;;44.42;24.83;;;4.10;99.90;;;;;;5020405;28;20402;-84
2022/03/23 05:51:57;;;;;;;48.92;26.48;;;4.10;99.90;;;;;;5010011;28;20044;-84
2022/03/23 05:54:23;;;;;;;47.70;26.00;;;4.10;99.90;;;;;;5055999;28;20481;-84
2022/03/23 05:56:50;;;;;;;42.65;24.52;;;4.10;99.90;;;;;;5082624;28;20813;-84
2022/03/23 05:59:16;;;;;;;46.92;25.13;;;4.10;99.90;;;;;;5010514;28;20360;-84
2022/03/23 06:01:42;;;;;;;48.20;26.38;;;4.10;99.90;;;;;;5009553;28;20131;-84
2022/03/23 06:04:08;;;;;;;48.05;26.17;;;4.10;99.90;;;;;;5020203;28;20368;-84
2022/03/23 06:06:34;;;;;;;49.47;26.75;;;4.10;99.90;;;;;;5007938;28;20050;-84
2022/03/23 06:09:00;;;;;;;48.15;24.83;;;4.10;99.90;;;;;;5061010;28;20057;-84
2022/03/23 06:11:25;;;;;;;49.45;27.10;;;4.20;99.90;;;;;;5006443;28;20516;-84
2022/03/23 06:13:51;;;;;;;50.42;28.13;;;4.20;99.90;;;;;;5051712;28;20421;-85
2022/03/23 06:16:17;;;;;;;52.25;27.50;;;4.30;99.90;;;;;;5071606;28;20457;-84
2022/03/23 06:18:42;;;;;;;46.08;26.48;;;4.30;99.90;;;;;;5028088;28;20046;-84
2022/03/23 06:21:08;;;;;;;50.30;26.67;;;4.40;99.90;;;;;;5071240;28;20553;-84
2022/03/23 06:23:34;;;;;;;51.13;28.92;;;4.40;99.90;;;;;;5003541;28;20045;-85
2022/03/23 06:26:01;;;;;;;53.58;26.98;;;4.50;99.90;;;;;;5089178;28;20047;-84
2022/03/23 06:28:26;;;;;;;46.45;26.98;;;4.60;99.90;;;;;;5021240;28;20083;-84
2022/03/23 06:30:52;;;;;;;50.83;27.48;;;4.60;99.90;;;;;;5008875;28;20406;-84
2022/03/23 06:33:19;;;;;;;51.00;27.10;;;4.70;99.90;;;;;;5007230;28;20042;-84
2022/03/23 06:35:45;;;;;;;48.30;25.55;;;4.70;99.90;;;;;;5008167;28;20449;-85
2022/03/23 06:38:11;;;;;;;46.72;26.08;;;4.80;99.90;;;;;;5030341;28;20073;-84
2022/03/23 06:40:37;;;;;;;52.28;29.88;;;4.90;99.90;;;;;;5008084;28;20070;-84
2022/03/23 06:43:02;;;;;;;51.72;27.85;;;5.00;99.90;;;;;;5009705;28;20049;-84
2022/03/23 06:45:29;;;;;;;56.42;31.52;;;5.00;99.90;;;;;;5064793;28;20427;-85
2022/03/23 06:47:55;;;;;;;51.97;29.95;;;5.10;99.90;;;;;;5014481;28;20118;-84
2022/03/23 06:50:20;;;;;;;56.78;34.97;;;5.20;99.90;;;;;;5009558;28;20046;-84
2022/03/23 06:52:46;;;;;;;56.05;33.85;;;5.30;99.90;;;;;;5010766;28;20106;-84
2022/03/23 06:55:11;;;;;;;52.22;31.45;;;5.50;99.90;;;;;;5031430;28;20053;-84
2022/03/23 06:57:37;;;;;;;55.92;30.00;;;5.60;99.90;;;;;;5044024;28;20468;-84
2022/03/23 07:00:12;;;;;;;53.13;30.45;;;5.70;99.90;;;;;;5022780;28;20042;-84
2022/03/23 07:02:48;;;;;;;49.00;32.85;;;5.70;99.90;;;;;;5053705;28;20054;-84
2022/03/23 07:05:15;;;;;;;56.15;35.08;;;5.90;99.90;;;;;;5054219;28;20056;-83
2022/03/23 07:10:40;;;;;;;60.78;38.00;;;6.20;99.90;;;;;;5039531;28;20077;-83
2022/03/23 07:13:05;;;;;;;59.22;36.58;;;6.30;99.90;;;;;;4995010;28;20058;-87
2022/03/23 07:15:32;;;;;;;54.67;35.15;;;6.50;99.90;;;;;;4952495;28;20480;-84
2022/03/23 07:17:57;;;;;;;55.60;36.47;;;6.70;99.90;;;;;;5034922;28;20056;-84
2022/03/23 07:20:24;;;;;;;50.55;32.90;;;6.90;99.90;;;;;;4994613;28;20043;-84
2022/03/23 07:22:50;;;;;;;50.70;36.22;;;7.00;99.90;;;;;;4932975;28;20059;-84
2022/03/23 07:25:15;;;;;;;52.15;33.78;;;7.10;99.90;;;;;;4949414;28;21227;-84
2022/03/23 07:27:41;;;;;;;49.45;33.13;;;7.30;99.90;;;;;;4950069;28;20055;-84
2022/03/23 07:30:08;;;;;;;56.90;35.13;;;7.50;99.90;;;;;;4969621;28;20508;-83
2022/03/23 07:32:34;;;;;;;51.17;32.72;;;7.60;99.90;;;;;;4976303;28;20071;-84
2022/03/23 07:35:00;;;;;;;47.25;33.15;;;7.80;99.90;;;;;;4973649;28;20047;-84
2022/03/23 07:37:25;;;;;;;51.42;33.67;;;7.90;99.90;;;;;;4987712;28;20420;-84
2022/03/23 07:39:51;;;;;;;45.30;39.00;;;8.10;99.90;;;;;;5022317;28;20075;-84
2022/03/23 07:42:16;;;;;;;47.30;38.35;;;8.30;99.90;;;;;;4958816;28;20043;-84
2022/03/23 07:44:42;;;;;;;44.17;31.75;;;8.50;99.90;;;;;;4982007;28;20075;-84
2022/03/23 07:47:10;;;;;;;44.33;31.05;;;8.60;99.90;;;;;;5051520;28;20051;-86
2022/03/23 07:49:36;;;;;;;39.88;35.30;;;8.70;99.90;;;;;;5012122;28;20138;-85
2022/03/23 07:52:03;;;;;;;42.53;32.03;;;8.90;99.90;;;;;;5091282;28;20164;-83
2022/03/23 07:54:29;;;;;;;46.88;35.30;;;9.10;99.90;;;;;;5053837;28;20084;-83
2022/03/23 07:56:54;;;;;;;40.47;34.85;;;9.20;99.90;;;;;;5009291;28;20085;-84
2022/03/23 07:59:20;;;;;;;35.25;31.38;;;9.40;99.90;;;;;;5052660;28;20494;-84
2022/03/23 08:01:45;;;;;;;36.72;32.63;;;9.50;99.90;;;;;;5102123;28;20451;-84
2022/03/23 08:04:11;;;;;;;35.10;31.00;;;9.60;99.90;;;;;;5034837;28;20051;-83
2022/03/23 08:06:37;;;;;;;34.08;30.25;;;9.70;99.90;;;;;;5054489;28;20034;-84
2022/03/23 08:09:03;;;;;;;36.90;30.73;;;9.90;99.90;;;;;;5044118;28;20051;-86
2022/03/23 08:11:29;;;;;;;37.08;31.98;;;10.00;99.90;;;;;;5081041;28;20176;-85
2022/03/23 08:13:56;;;;;;;36.08;30.92;;;10.20;99.90;;;;;;5099415;28;20064;-84
2022/03/23 08:16:21;;;;;;;33.85;29.60;;;10.30;99.90;;;;;;5006959;28;20045;-84
2022/03/23 08:18:47;;;;;;;35.05;29.67;;;10.50;99.90;;;;;;5013926;28;20391;-84
2022/03/23 08:21:12;;;;;;;33.95;28.98;;;10.60;99.90;;;;;;5010695;28;20057;-84
2022/03/23 08:23:40;;;;;;;31.83;28.33;;;10.70;99.90;;;;;;5073666;28;20489;-84
2022/03/23 08:26:09;;;;;;;31.05;27.73;;;10.80;99.90;;;;;;5099825;28;20407;-84
2022/03/23 08:28:35;;;;;;;29.85;26.65;;;10.90;99.90;;;;;;5026501;28;20046;-84
2022/03/23 08:31:01;;;;;;;31.55;26.60;;;11.10;99.90;;;;;;5048126;28;20123;-84
2022/03/23 08:33:30;;;;;;;30.33;26.58;;;11.10;97.30;;;;;;5023532;28;20141;-84
2022/03/23 08:35:56;;;;;;;29.80;26.52;;;11.20;96.40;;;;;;5008567;28;20382;-84
2022/03/23 08:38:21;;;;;;;28.48;25.42;;;11.50;97.60;;;;;;5045045;28;20037;-83
2022/03/23 08:40:47;;;;;;;29.63;24.92;;;11.50;97.10;;;;;;5088458;28;20134;-84
2022/03/23 08:43:12;;;;;;;29.75;26.48;;;11.60;95.60;;;;;;5100369;28;20372;-84
2022/03/23 08:45:38;;;;;;;28.67;25.30;;;11.70;93.50;;;;;;5098751;28;20040;-84
2022/03/23 08:48:04;;;;;;;27.95;24.60;;;11.90;91.60;;;;;;5052788;28;20375;-84
2022/03/23 08:50:30;;;;;;;30.88;25.33;;;12.00;87.20;;;;;;5020715;28;20046;-84
2022/03/23 08:52:56;;;;;;;28.17;25.13;;;12.10;86.90;;;;;;5100626;28;20081;-84
2022/03/23 08:55:23;;;;;;;27.88;24.65;;;12.20;84.80;;;;;;5032732;28;20077;-83
2022/03/23 08:57:49;;;;;;;29.48;26.25;;;12.30;82.70;;;;;;5024922;28;20065;-89
2022/03/23 09:00:15;;;;;;;27.08;24.20;;;12.50;78.30;;;;;;5053567;28;20030;-87
2022/03/23 09:02:41;;;;;;;27.48;24.38;;;12.60;78.10;;;;;;5012466;28;20048;-87
2022/03/23 09:05:10;;;;;;;27.77;24.73;;;12.80;76.10;;;;;;5056393;28;20107;-85
2022/03/23 09:07:37;;;;;;;27.80;24.85;;;12.90;73.40;;;;;;5008972;28;20038;-85
2022/03/23 09:10:04;;;;;;;28.15;24.88;;;13.10;71.60;;;;;;5008446;28;20494;-87
2022/03/23 09:12:29;;;;;;;27.60;23.92;;;13.20;71.30;;;;;;5008408;28;20050;-87
2022/03/23 09:14:55;;;;;;;27.15;23.92;;;13.30;72.00;;;;;;5071924;28;20095;-88
2022/03/23 09:17:22;;;;;;;25.88;23.00;;;13.40;68.20;;;;;;5010756;28;20049;-87
2022/03/23 09:19:48;;;;;;;26.92;23.90;;;13.50;65.80;;;;;;5061032;28;20134;-86
2022/03/23 09:22:13;;;;;;;28.10;23.63;;;13.60;66.70;;;;;;5013227;28;20154;-87
2022/03/23 09:24:39;;;;;;;25.20;22.52;;;13.70;67.00;;;;;;5030657;28;20058;-89
2022/03/23 09:27:05;;;;;;;25.63;22.92;;;13.80;65.40;;;;;;5008974;28;20038;-86
2022/03/23 09:29:31;;;;;;;24.58;21.75;;;13.90;63.80;;;;;;5009386;28;20056;-87
2022/03/23 09:31:57;;;;;;;25.08;22.48;;;14.00;63.50;;;;;;4990790;28;20050;-86
2022/03/23 09:34:23;;;;;;;24.90;22.27;;;14.00;63.10;;;;;;5023073;28;20397;-88
2022/03/23 09:39:33;;;;;;;24.42;21.23;;;14.20;61.50;;;;;;5057327;28;20130;-87
2022/03/23 09:41:59;;;;;;;22.40;20.08;;;14.40;60.10;;;;;;5075664;28;20151;-87
2022/03/23 09:44:28;;;;;;;23.20;20.65;;;14.60;59.50;;;;;;5012814;28;20045;-88
2022/03/23 09:46:55;;;;;;;22.40;19.50;;;14.70;57.20;;;;;;5004471;28;20050;-88
2022/03/23 09:49:23;;;;;;;22.00;19.70;;;14.80;54.90;;;;;;5030935;28;20051;-88
2022/03/23 09:51:52;;;;;;;21.45;19.15;;;14.90;55.00;;;;;;5009063;28;20098;-88
2022/03/23 09:54:17;;;;;;;22.00;19.70;;;15.00;54.90;;;;;;5042027;28;20048;-87
2022/03/23 09:56:43;;;;;;;21.15;18.95;;;15.10;54.40;;;;;;5037846;28;20506;-87
2022/03/23 09:59:09;;;;;;;26.17;19.10;;;15.20;53.90;;;;;;5100051;28;20056;-86
2022/03/23 10:01:35;;;;;;;19.88;17.08;;;15.20;52.20;;;;;;5028560;28;20050;-86
2022/03/23 10:04:13;;;;;;;18.13;16.23;;;15.30;52.00;;;;;;5005902;28;20050;-86
2022/03/23 10:06:44;;;;;;;19.40;17.27;;;15.30;50.70;;;;;;5007089;28;20056;-86
2022/03/23 10:09:23;;;;;;;20.52;17.63;;;15.30;49.40;;;;;;5050937;28;20060;-87
2022/03/23 10:12:23;;;;;;;19.92;17.17;;;15.40;49.60;;;;;;5031046;28;20375;-87
2022/03/23 10:15:26;;;;;;;19.08;17.08;;;15.50;48.80;;;;;;5025099;28;20504;-86
2022/03/23 10:18:33;;;;;;;19.00;17.00;;;15.60;50.90;;;;;;5006466;28;20112;-86
2022/03/23 10:20:59;;;;;;;20.00;17.75;;;15.60;49.30;;;;;;4988401;28;20360;-86
2022/03/23 10:23:24;;;;;;;20.38;17.63;;;15.70;49.80;;;;;;5045080;28;20048;-85
2022/03/23 10:25:51;;;;;;;19.10;16.80;;;15.80;50.00;;;;;;5098019;28;20630;-86
2022/03/23 10:28:17;;;;;;;18.60;16.65;;;15.80;50.40;;;;;;5011838;28;20046;-86
2022/03/23 10:30:45;;;;;;;20.27;17.13;;;15.90;50.30;;;;;;5010118;28;20387;-86
2022/03/23 10:33:24;;;;;;;18.65;16.65;;;16.00;49.70;;;;;;5009520;28;20060;-86
2022/03/23 10:35:51;;;;;;;18.73;16.20;;;16.10;49.20;;;;;;5079884;28;20207;-87
2022/03/23 10:38:21;;;;;;;19.10;17.08;;;16.20;49.10;;;;;;5046695;28;20079;-86
2022/03/23 10:40:49;;;;;;;18.98;16.98;;;16.30;48.70;;;;;;5103904;28;20046;-86
2022/03/23 10:43:22;;;;;;;18.77;16.88;;;16.40;47.30;;;;;;5015088;28;20517;-88
2022/03/23 10:45:47;;;;;;;19.60;15.65;;;16.40;45.70;;;;;;5012901;28;20379;-87
2022/03/23 10:48:16;;;;;;;18.77;15.90;;;16.40;45.00;;;;;;5010421;28;20122;-86
2022/03/23 10:50:56;;;;;;;17.55;15.52;;;16.40;45.30;;;;;;5024992;28;20053;-86
2022/03/23 10:53:37;;;;;;;18.70;15.68;;;16.40;46.20;;;;;;5073145;28;20058;-86
2022/03/23 10:56:04;;;;;;;18.42;15.52;;;16.50;43.60;;;;;;5010260;28;20049;-87
2022/03/23 10:58:30;;;;;;;17.92;14.10;;;16.50;44.70;;;;;;5045678;28;20044;-85
2022/03/23 11:01:15;;;;;;;18.45;14.50;;;16.50;45.10;;;;;;5059494;28;20404;-85
2022/03/23 11:03:42;;;;;;;20.17;14.52;;;16.50;46.10;;;;;;5100610;28;20411;-86
2022/03/23 11:06:10;;;;;;;17.63;14.07;;;16.60;46.20;;;;;;5049824;28;20039;-86
2022/03/23 11:08:36;;;;;;;20.20;15.50;;;16.70;47.10;;;;;;5098181;28;20044;-87
2022/03/23 11:16:37;;;;;;;18.17;14.10;;;16.90;46.50;;;;;;5009383;28;20072;-86
2022/03/23 11:19:10;;;;;;;19.67;14.50;;;17.00;46.90;;;;;;5034673;28;20048;-86
2022/03/23 11:22:12;;;;;;;19.63;16.08;;;17.00;45.40;;;;;;5008091;28;20052;-86
2022/03/23 11:24:46;;;;;;;18.88;14.75;;;17.10;46.10;;;;;;5010183;28;20041;-85
2022/03/23 11:27:17;;;;;;;17.23;13.57;;;17.10;46.10;;;;;;5017051;28;20102;-87
2022/03/23 11:29:43;;;;;;;19.95;13.38;;;17.20;46.60;;;;;;5010232;28;20108;-87
2022/03/23 11:32:24;;;;;;;21.02;13.55;;;17.30;45.90;;;;;;5016029;28;20405;-87
2022/03/23 11:34:50;;;;;;;17.90;14.02;;;17.40;45.70;;;;;;5032702;27;20047;-87
2022/03/23 11:37:19;;;;;;;18.48;14.63;;;17.40;46.20;;;;;;5031074;28;20124;-89
2022/03/23 11:39:45;;;;;;;19.23;13.65;;;17.50;46.00;;;;;;5015929;28;20075;-85
2022/03/23 11:42:13;;;;;;;19.85;14.30;;;17.60;45.30;;;;;;5045093;28;20041;-85
2022/03/23 11:44:40;;;;;;;22.10;14.05;;;17.60;44.50;;;;;;5010397;28;20083;-85
2022/03/23 11:47:28;;;;;;;20.00;14.82;;;17.70;44.70;;;;;;5029152;28;20556;-85
2022/03/23 11:50:31;;;;;;;20.50;14.35;;;17.70;43.80;;;;;;5012965;28;20057;-86
2022/03/23 11:53:08;;;;;;;20.45;13.73;;;17.70;45.50;;;;;;5038075;27;20061;-85
2022/03/23 11:55:40;;;;;;;19.33;14.45;;;17.70;43.90;;;;;;5032397;28;20130;-85
2022/03/23 11:58:24;;;;;;;20.13;13.63;;;17.80;42.80;;;;;;5016808;28;20045;-85
2022/03/23 12:01:05;;;;;;;21.88;13.38;;;17.80;44.10;;;;;;5031479;28;20491;-85
2022/03/23 12:03:40;;;;;;;18.85;13.25;;;17.90;44.80;;;;;;5008549;28;20058;-85
2022/03/23 12:06:13;;;;;;;19.52;13.75;;;17.90;43.20;;;;;;5007701;28;20052;-86
2022/03/23 12:08:51;;;;;;;21.85;14.65;;;17.90;44.00;;;;;;5039131;28;20118;-85
2022/03/23 12:11:38;;;;;;;20.13;12.88;;;17.90;42.80;;;;;;5018863;28;20462;-86
2022/03/23 12:14:17;;;;;;;19.40;12.95;;;18.00;44.50;;;;;;5002397;28;20049;-85
2022/03/23 12:16:45;;;;;;;17.80;12.30;;;18.00;44.80;;;;;;5025442;28;20042;-85
2022/03/23 12:19:12;;;;;;;16.75;13.18;;;18.00;43.70;;;;;;5013087;28;20055;-85
2022/03/23 12:22:06;;;;;;;20.02;13.45;;;18.10;44.20;;;;;;5035598;28;20410;-84
2022/03/23 12:24:41;;;;;;;17.65;12.35;;;18.10;42.30;;;;;;5023153;28;20059;-84
2022/03/23 12:27:24;;;;;;;18.13;11.13;;;18.10;42.70;;;;;;5016502;28;20050;-84
2022/03/23 12:29:52;;;;;;;18.05;11.13;;;18.10;43.00;;;;;;5009973;28;20068;-85
2022/03/23 12:32:17;;;;;;;18.13;11.77;;;18.10;43.80;;;;;;5014007;28;20042;-85
2022/03/23 12:34:44;;;;;;;23.42;13.55;;;18.10;44.80;;;;;;5011256;28;20038;-84
2022/03/23 12:37:16;;;;;;;18.42;12.68;;;18.10;43.60;;;;;;5009678;28;20485;-85
2022/03/23 12:39:46;;;;;;;19.42;11.70;;;18.10;41.70;;;;;;5096687;28;20091;-85
2022/03/23 12:42:12;;;;;;;18.95;11.48;;;18.10;43.80;;;;;;5077771;28;20119;-85
2022/03/23 12:44:40;;;;;;;19.75;11.63;;;18.10;44.00;;;;;;5101225;28;20130;-85
2022/03/23 12:47:30;;;;;;;18.98;10.38;;;18.20;44.10;;;;;;5026963;28;20042;-85
2022/03/23 12:58:35;;;;;;;19.77;10.40;;;18.20;44.60;;;;;;5091957;28;20171;-85
2022/03/23 13:01:14;;;;;;;17.80;10.70;;;18.20;44.10;;;;;;5032136;28;20048;-86
2022/03/23 13:03:41;;;;;;;17.08;10.23;;;18.30;44.20;;;;;;5029347;28;20490;-85
2022/03/23 13:06:11;;;;;;;17.58;10.77;;;18.30;43.90;;;;;;4998180;28;20038;-86